Timeline UpdatesTrip UpdatesNews PostsPvt PostsTravel TipsAdmin PostsConv PostsFollowed PostsChat RequestsBlog PostsPNR Posts

Disclaimer
Search
 
 
Tue Jul 29, 2014 22:21:32 ISTHomeTrainsΣChainsAtlasPNRForumGalleryNewsFAQTripsMembersLoginFeedback
No Recent News for this Train
Other Trains in the News **new
Latest...
Will start from LPI w.e.f 20/01/2014 to 05/03/2014
Thu Jan 16, 2014 (07:02PM)
⇐ Return Journey: Train# 57550

57549/Hyderabad Aurangabad Passenger

Jul 02 2013 (7:03PM)
Change Departure Station:
Change Arrival Station:
Post a Train Travel TipPost a Train Travel Tip **new
Post a Comment/Question/Picture/VideoPost a Comment/Question/Picture/Video
Pantry/Catering
✕ NO Pantry Car
✕ NO Catering
Loco/Rake Reversals
PRLI/Parli Vaijnath (3); PBN/Parbhani Junction (3);
RSA - Rake Sharing
57549=>57550=>57547=>57548=>57549
Rake/Coach Composition
3 Sleeper and 7 Gen and 2 SLR.; Entry# 780685 By:shreyaskp007
Loco
MLY WDM 2A
News    PNR    Forum    Time-Table    Availability    Fare Chart    Map    Arr/Dep History    Trips    Gallery    ΣChains    X/O    Timeline    
Travel Time: 2h 45m    13 halts    Distance: 119 km    Avg Speed: 43 km/hr
Type: Passenger
Zone: SCR/South Central
Departs @ 21:35 (Avg 4m late)
Platform# 1
SMTWTFS
Hyderabad Deccan Nampally/HYB 
Arrives @ 00:20 +1 night (Avg 27m late)
Platform# ???
SMTWTFS
Kohir Deccan/KOHR 

13 halts. 23 intermediate Stations between Hyderabad Deccan Nampally and Kohir Deccan

Show ALL intermediate Stations  Show Old Time-Table

#CodeStation NameX/OArrivesAvgDepartsAvgHaltPFDay#KmSpeedElevZoneAddress
1HYB»Hyderabad Deccan Nampally (6)»  -21:35+4110.028510mSCRHyderabad, Telangana
2KQDKhairatabad (2)  21:40+2021:41+201m--12.325518mSCRHyderabad, Telangana
3BMTBegumpet (2)  21:49+621:50+61m215.724531mSCRHyderabad, Telangana
4SNFSanathnagar (3)X  21:59+1322:00+131m219.362547mSCRHyderabad, Telangana
5HFZHafizpet (2)  22:09+2522:10+261m2118.629590mSCRHyderabad, Telangana
6LPILingampalli (6)  22:21+1522:22+151m1123.883558mSCRRangareddy Dist., Telangana
7NPLNagalapalle (2)  22:29+2522:30+261m2133.660561mSCRMedak Dist., Telangana
8SKPShankarpalli (2)  22:41+2522:42+251m2144.546574mSCRRangareddy Dist., Telangana
9RPKRavulapalli Kalan (2)  22:49+3722:50+371m2149.892582mSCRRangareddy Dist., Telangana
10GGDGullaguda  22:54+2122:55+211m--156.046599mSCRRangareddy Dist., Telangana
11CTFChitgidda  23:04+2623:05+261m--162.942607mSCRRangareddy Dist., Telangana
12VKBVikarabad Junction (3)  23:20+2123:30+2310m2173.369633mSCRRangareddy Dist., Telangana
13SSPDSadashivapet Road  23:49+3623:50+361m--195.157632mSCRRangareddy Dist., Telangana
14MRFMarpalli  00:05+2900:06+291m--2109.242628mSCRRangareddu Dist., Telangana
15KOHR•Kohir Deccan (1)•  00:20+2700:21+271m--2118.952629mSCRMedak Dist., Telangana
16ZBZahirabad (1)X  00:37+2300:38+251m12132.841634mSCRDist. Medak, Telangana
17BIDRBidar (3)X  01:25+1101:30+135m--2164.680673mSCRBidar ph.no 08482 226404, Karnataka
18BHLKBhalki  01:58+3502:00+362m--2202.198607mSCRBhalki ph.no 08484 262209, Karnataka
19KCPKalgupur  02:09+4102:10+451m--2216.762554mSCRHulsoor, Karnataka
20KMNRKamalnagar  02:19+4602:20+501m--2226.164570mSCRKamal Nagar, Karnataka
21UDGRUdgir (1)  02:38+5002:40+532m12245.382649mSCRUdgir ph.no 02385 256022, Maharashtra
22KTKRKumtha Khurd  02:49+3402:50+341m--2257.67641mSCRState Highway 217, Maharashtra
23HERHerX  03:29+3003:30+331m--2261.922646mSCRLatur, Maharashtra
24AMBRAmbika Rohina  03:39+3103:40+311m--2265.325657mSCRAmbika Devi Rd, Maharashtra
25NGHWNageshwadi Halt  03:49+3003:50+301m--2269.031657mSCRNageshwadi Halt, Maharashtra
26CKXChakur  03:59+2304:00+301m--2273.628645mSCRMSH3, Maharashtra
27LTRRLatur Road Junction (3)O  04:10+1904:11+221m12278.335648mSCRLatur Road ph.no 02381 258044, Maharashtra
28WDLNWadwal Nagnath (1)X  04:19+3204:20+321m12282.946638mSCRWadwal Nagnath, Maharashtra
29JOAJanwal (1)X  04:29+2104:30+211m12289.957645mSCRLatur, Maharashtra
30KRPRKarepur (1)O  04:39+1604:40+161m12298.59620mSCRState Highway 168, Maharashtra
31PNFPangaon (1)  05:29+405:30+61m12305.754637mSCRPangaon, Maharashtra
32MRTYMurti (1)  05:39+405:40+41m12313.911624mSCRState Highway 169, Maharashtra
33GTUGhat Nandur (1)O  06:04+006:05+61m12318.228634mSCRGhat Nadur, Maharashtra
34PRLIParli Vaijnath (3)06:55+507:15+920m--2341.482462mSCRParli-Vaijnath, Maharashtra
35UKHUkhali  07:24+1507:25+151m--2353.753409mSCRState Highway 169, Maharashtra
36VDGNVadgaon Nila  07:29-07:30-1m--2357.260398mSCRState Highway 169, Maharashtra
37GNHGangakher (2)X  07:44+2207:45+321m--2371.442392mSCRState Highway 217, Maharashtra
38DNDIDhondi (1)X  08:04+2308:05+231m--2384.560403mSCRState Highway 148, Maharashtra
39PKNSPokharni Narasimha (2)X  08:09+3208:10+421m--2388.543417mSCRPokharni Nrsnha, Maharashtra
40SNGRSanganapur  08:19+1708:20+171m--2395.021420mSCRState Highway 148, Maharashtra
41PBNParbhani Junction (3)08:50+2809:00+3710m22405.752414mSCRParbhani 431401, Maharashtra
42PGPergaon  09:14+4509:15+451m--2417.840441mSCRParbhani, Maharashtra
43DAVDevalgaon Avchar  09:24+4409:25+481m--2423.862425mSCRParbhani, Maharashtra
44MVOManwath Road (2)X  09:34+4209:35+441m--2433.136421mSCRParbhani, Maharashtra
45DGPPDhengli PimpalgaonX  09:44+4609:45+471m--2438.541407mSCRSatuna, Maharashtra
46SELUSelu (2)  09:59+3910:00+411m--2448.168436mSCRParbhani, Maharashtra
47SCOSatunaX  10:09+4310:10+441m--2458.353440mSCRSatona, Maharashtra
48UPRUsmanpur  10:19+4710:20+501m--2466.263444mSCRUsmanpur, Maharashtra
49PTUPartur (2)  10:29+4810:30+511m--2475.748465mSCRJalna, Maharashtra
50PDGParadgaon  10:39+3210:40+321m--2482.942454mSCRUsmanpur, Maharashtra
51RNERanjani  10:49+5110:50+521m--2489.175469mSCRJalna, Maharashtra
52KODIKodi  10:59+5311:00+551m--2500.443473mSCRRanjani, Maharashtra
53SVDSarwari  11:14+4711:15+471m--2510.323493mSCRRanjani, Maharashtra
54JJalna (3)  11:40+3511:45+405m--2520.160502mSCRJalna, Maharashtra
55BDUBadnapurX  12:04+4012:05+421m--2539.049523mSCRJalna, Maharashtra
56KMVKarmad  12:24+4212:25+441m--2554.517567mSCRAurangabad, Maharashtra
57CTHChikalthan  12:39+4012:40+481m--2558.495582mSCRAurangabad, Maharashtra
58MKDDMukundwadi Halt (1)  12:49+2012:50+201m12572.77580mSCRAurangabad, Maharashtra
59AWBAurangabad (5)  14:15+29-32582.7-561mSCRAurangabad 431001, Maharashtra
Scroll to Top
Scroll to Bottom